Time;durP1;ratioP1;P1;durP2;ratioP2;P2;SDS_P1;SDS_P2;PMS_P1;PMS_P2;Temp;Humidity;BMP_temperature;BMP_pressure;BME280_temperature;BME280_humidity;BME280_pressure;Samples;Min_cycle;Max_cycle;Signal;HPM_P1;HPM_P2
2023/09/04 00:02:32;;;;;;;6.32;3.47;;;;;;;;;;10341441;28;20555;-69
2023/09/04 00:07:30;;;;;;;4.80;2.70;;;;;;;;;;10338481;28;20091;-69
2023/09/04 00:12:28;;;;;;;4.30;3.38;;;;;;;;;;10335092;28;20068;-69
2023/09/04 00:17:30;;;;;;;4.78;3.08;;;;;;;;;;10334015;28;20074;-69
2023/09/04 00:22:30;;;;;;;5.65;3.38;;;;;;;;;;10332557;28;20075;-69
2023/09/04 00:27:28;;;;;;;5.30;3.30;;;;;;;;;;10332373;28;20087;-68
2023/09/04 00:32:27;;;;;;;3.10;2.80;;;;;;;;;;10333047;28;20067;-68
2023/09/04 00:37:26;;;;;;;3.90;2.60;;;;;;;;;;10331852;28;20079;-70
2023/09/04 00:42:24;;;;;;;5.85;2.70;;;;;;;;;;10333668;28;20063;-69
2023/09/04 00:47:24;;;;;;;5.75;3.15;;;;;;;;;;10333798;28;20068;-69
2023/09/04 00:52:24;;;;;;;2.85;2.30;;;;;;;;;;10298447;28;20461;-69
2023/09/04 00:57:23;;;;;;;3.30;3.00;;;;;;;;;;10333691;28;20488;-68
2023/09/04 01:02:21;;;;;;;6.15;3.17;;;;;;;;;;10329622;28;20209;-68
2023/09/04 01:07:19;;;;;;;3.55;3.28;;;;;;;;;;10301916;28;20549;-68
2023/09/04 01:12:22;;;;;;;6.15;3.15;;;;;;;;;;10313691;28;20083;-69
2023/09/04 01:17:20;;;;;;;3.42;2.97;;;;;;;;;;10334580;28;20068;-69
2023/09/04 01:22:20;;;;;;;4.60;2.80;;;;;;;;;;10333867;28;20334;-69
2023/09/04 01:27:22;;;;;;;3.83;3.35;;;;;;;;;;10331811;28;20075;-69
2023/09/04 01:32:26;;;;;;;3.97;2.92;;;;;;;;;;10302006;28;20072;-69
2023/09/04 01:37:27;;;;;;;2.95;2.70;;;;;;;;;;10302838;28;20574;-69
2023/09/04 01:42:25;;;;;;;3.75;2.67;;;;;;;;;;10330650;28;20080;-69
2023/09/04 01:47:23;;;;;;;3.85;3.20;;;;;;;;;;10327199;28;20083;-69
2023/09/04 01:52:22;;;;;;;3.30;3.00;;;;;;;;;;10329879;28;20072;-69
2023/09/04 01:57:21;;;;;;;4.55;3.38;;;;;;;;;;10332373;28;20100;-69
2023/09/04 02:02:20;;;;;;;6.38;3.58;;;;;;;;;;10299731;28;20079;-69
2023/09/04 02:07:18;;;;;;;4.43;3.55;;;;;;;;;;10331440;28;20092;-69
2023/09/04 02:12:16;;;;;;;6.18;3.90;;;;;;;;;;10313755;28;20083;-69
2023/09/04 02:17:16;;;;;;;4.93;3.92;;;;;;;;;;10329651;28;20079;-68
2023/09/04 02:22:14;;;;;;;3.67;3.20;;;;;;;;;;10296625;28;20076;-68
2023/09/04 02:27:12;;;;;;;6.00;3.65;;;;;;;;;;10327567;28;20068;-69
2023/09/04 02:32:11;;;;;;;6.55;4.25;;;;;;;;;;10326696;28;20068;-69
2023/09/04 02:37:10;;;;;;;5.38;4.38;;;;;;;;;;10327616;28;20446;-69
2023/09/04 02:42:09;;;;;;;4.75;4.35;;;;;;;;;;10326857;28;20063;-69
2023/09/04 02:47:08;;;;;;;4.72;4.30;;;;;;;;;;10329233;28;20063;-69
2023/09/04 02:52:06;;;;;;;10.73;5.60;;;;;;;;;;10329384;28;20065;-69
2023/09/04 02:57:06;;;;;;;6.82;4.97;;;;;;;;;;10312046;28;20582;-68
2023/09/04 03:02:05;;;;;;;9.25;5.15;;;;;;;;;;10327080;28;20563;-68
2023/09/04 03:07:03;;;;;;;8.85;5.45;;;;;;;;;;10327749;28;20091;-68
2023/09/04 03:12:01;;;;;;;8.55;4.97;;;;;;;;;;10316160;28;20076;-68
2023/09/04 03:17:04;;;;;;;7.03;4.22;;;;;;;;;;10311596;28;20082;-68
2023/09/04 03:22:03;;;;;;;5.03;4.05;;;;;;;;;;10312941;28;20072;-69
2023/09/04 03:27:01;;;;;;;5.60;4.65;;;;;;;;;;10328014;28;20071;-69
2023/09/04 03:32:00;;;;;;;4.57;4.18;;;;;;;;;;10328802;28;20086;-69
2023/09/04 03:37:00;;;;;;;5.85;4.38;;;;;;;;;;10308588;28;20068;-69
2023/09/04 03:41:59;;;;;;;4.30;3.90;;;;;;;;;;10296433;28;20442;-69
2023/09/04 03:46:58;;;;;;;4.95;4.18;;;;;;;;;;10333833;28;20555;-69
2023/09/04 03:51:56;;;;;;;5.10;4.28;;;;;;;;;;10331997;28;20071;-68
2023/09/04 03:56:56;;;;;;;7.10;5.50;;;;;;;;;;10334397;28;20071;-68
2023/09/04 04:01:54;;;;;;;4.15;3.75;;;;;;;;;;10320729;28;20087;-68
2023/09/04 04:06:52;;;;;;;4.50;3.42;;;;;;;;;;10330946;28;20068;-69
2023/09/04 04:11:51;;;;;;;7.55;3.72;;;;;;;;;;10316706;28;20080;-68
2023/09/04 04:16:50;;;;;;;8.55;3.60;;;;;;;;;;10335934;28;20072;-68
2023/09/04 04:21:49;;;;;;;3.85;3.55;;;;;;;;;;10322025;28;20535;-69
2023/09/04 04:26:48;;;;;;;7.15;3.75;;;;;;;;;;10317164;28;20078;-68
2023/09/04 04:31:46;;;;;;;5.25;3.47;;;;;;;;;;10334363;28;20501;-69
2023/09/04 04:36:47;;;;;;;4.28;3.30;;;;;;;;;;10301442;28;20052;-68
2023/09/04 04:41:45;;;;;;;3.65;3.35;;;;;;;;;;10318127;28;20079;-68
2023/09/04 04:46:44;;;;;;;4.47;3.00;;;;;;;;;;10302400;28;20075;-69
2023/09/04 04:51:42;;;;;;;2.92;2.60;;;;;;;;;;10331935;28;20075;-69
2023/09/04 04:56:42;;;;;;;2.92;2.05;;;;;;;;;;10327279;28;20476;-69
2023/09/04 05:01:41;;;;;;;2.20;2.00;;;;;;;;;;10331154;28;20071;-68
2023/09/04 05:06:40;;;;;;;2.28;2.05;;;;;;;;;;10299518;28;20075;-68
2023/09/04 05:11:39;;;;;;;5.35;2.10;;;;;;;;;;10300691;28;20476;-69
2023/09/04 05:16:38;;;;;;;4.18;2.70;;;;;;;;;;10332478;28;20093;-69
2023/09/04 05:21:37;;;;;;;2.17;1.98;;;;;;;;;;10331389;28;20075;-69
2023/09/04 05:26:51;;;;;;;3.78;2.88;;;;;;;;;;10312991;28;20083;-67
2023/09/04 05:31:52;;;;;;;3.03;2.28;;;;;;;;;;10328621;28;20076;-68
2023/09/04 05:36:50;;;;;;;2.72;2.10;;;;;;;;;;10329154;28;20091;-68
2023/09/04 05:41:49;;;;;;;2.88;2.53;;;;;;;;;;10329222;28;20060;-68
2023/09/04 05:46:47;;;;;;;2.53;1.90;;;;;;;;;;10328302;28;20072;-68
2023/09/04 05:51:46;;;;;;;2.42;2.22;;;;;;;;;;10331593;28;20324;-69
2023/09/04 05:56:45;;;;;;;2.88;2.58;;;;;;;;;;10328250;28;20076;-69
2023/09/04 06:01:43;;;;;;;3.97;2.30;;;;;;;;;;10326873;28;20063;-69
2023/09/04 06:06:41;;;;;;;9.05;2.60;;;;;;;;;;10329900;28;20079;-69
2023/09/04 06:11:41;;;;;;;3.40;2.75;;;;;;;;;;10326415;28;20097;-69
2023/09/04 06:16:39;;;;;;;3.78;2.55;;;;;;;;;;10328256;28;20075;-69
2023/09/04 06:21:38;;;;;;;3.15;2.85;;;;;;;;;;10325475;28;20075;-69
2023/09/04 06:26:36;;;;;;;3.25;2.67;;;;;;;;;;10327630;28;20083;-68
2023/09/04 06:31:36;;;;;;;5.40;2.70;;;;;;;;;;10326842;28;20486;-69
2023/09/04 06:36:34;;;;;;;3.63;3.33;;;;;;;;;;10329721;28;20082;-69
2023/09/04 06:41:32;;;;;;;3.80;3.50;;;;;;;;;;10328271;28;20087;-69
2023/09/04 06:46:31;;;;;;;4.20;3.50;;;;;;;;;;10325057;28;20064;-69
2023/09/04 06:51:31;;;;;;;4.07;3.65;;;;;;;;;;10317418;28;20064;-69
2023/09/04 06:56:30;;;;;;;4.50;3.40;;;;;;;;;;10316226;28;20071;-69
2023/09/04 07:01:28;;;;;;;4.15;3.75;;;;;;;;;;10320397;28;20504;-69
2023/09/04 07:06:26;;;;;;;5.60;3.53;;;;;;;;;;10327478;28;20120;-70
2023/09/04 07:11:26;;;;;;;7.47;3.63;;;;;;;;;;10329910;28;20548;-71
2023/09/04 07:16:25;;;;;;;4.05;3.58;;;;;;;;;;10332247;28;20068;-70
2023/09/04 07:21:40;;;;;;;;;;;;;;;;;;10336125;28;20484;-70
2023/09/04 07:26:41;;;;;;;5.07;3.58;;;;;;;;;;10335614;28;19967;-69
2023/09/04 07:31:39;;;;;;;8.45;3.80;;;;;;;;;;10336803;28;20071;-71
2023/09/04 07:36:37;;;;;;;8.13;4.32;;;;;;;;;;10335189;28;20458;-71
2023/09/04 07:41:36;;;;;;;3.40;3.10;;;;;;;;;;10331515;28;20072;-71
2023/09/04 07:46:35;;;;;;;5.32;3.05;;;;;;;;;;10337169;28;20056;-71
2023/09/04 07:51:33;;;;;;;4.55;3.28;;;;;;;;;;10337654;28;20083;-70
2023/09/04 07:56:33;;;;;;;4.28;3.55;;;;;;;;;;10333496;28;20068;-71
2023/09/04 08:01:35;;;;;;;4.70;3.15;;;;;;;;;;10328419;28;20099;-71
2023/09/04 08:06:34;;;;;;;5.22;3.22;;;;;;;;;;10333477;28;20079;-70
2023/09/04 08:11:32;;;;;;;3.53;2.83;;;;;;;;;;10333389;28;20543;-69
2023/09/04 08:16:30;;;;;;;3.38;2.60;;;;;;;;;;10329673;28;20064;-69
2023/09/04 08:21:30;;;;;;;2.90;2.70;;;;;;;;;;10329878;28;20476;-69
2023/09/04 08:26:29;;;;;;;3.60;2.83;;;;;;;;;;10326354;28;20482;-69
2023/09/04 08:31:28;;;;;;;3.38;3.08;;;;;;;;;;10328458;28;20067;-69
2023/09/04 08:36:26;;;;;;;3.70;2.75;;;;;;;;;;10332826;28;20074;-68
2023/09/04 08:41:27;;;;;;;4.30;3.55;;;;;;;;;;10328604;28;20068;-68
2023/09/04 08:46:28;;;;;;;3.22;2.72;;;;;;;;;;10324152;28;20743;-68
2023/09/04 08:51:27;;;;;;;2.88;2.65;;;;;;;;;;10324572;28;20076;-68
2023/09/04 08:56:28;;;;;;;2.90;2.70;;;;;;;;;;10330193;28;20473;-68
2023/09/04 09:01:30;;;;;;;3.33;3.00;;;;;;;;;;10330192;28;20075;-68
2023/09/04 09:06:28;;;;;;;4.65;2.70;;;;;;;;;;10327159;28;20083;-69
2023/09/04 09:11:30;;;;;;;5.03;3.42;;;;;;;;;;10323950;28;20076;-68
2023/09/04 09:16:28;;;;;;;5.70;2.92;;;;;;;;;;10327856;28;20076;-68
2023/09/04 09:21:39;;;;;;;4.07;3.35;;;;;;;;;;10332678;28;20496;-68
2023/09/04 09:26:40;;;;;;;6.00;2.88;;;;;;;;;;10332824;28;20070;-69
2023/09/04 09:31:38;;;;;;;5.20;3.03;;;;;;;;;;10331327;28;20325;-68
2023/09/04 09:36:37;;;;;;;3.35;2.75;;;;;;;;;;10332423;28;20071;-68
2023/09/04 09:41:35;;;;;;;3.95;3.15;;;;;;;;;;10331884;28;20516;-68
2023/09/04 09:46:36;;;;;;;5.97;3.47;;;;;;;;;;10331271;28;20071;-68
2023/09/04 09:51:36;;;;;;;3.38;2.65;;;;;;;;;;10330622;28;20076;-69
2023/09/04 09:56:34;;;;;;;5.28;2.75;;;;;;;;;;10329822;28;20076;-69
2023/09/04 10:01:32;;;;;;;5.18;2.78;;;;;;;;;;10330070;28;20175;-69
2023/09/04 10:06:35;;;;;;;3.47;2.47;;;;;;;;;;10332442;28;20068;-68
2023/09/04 10:11:35;;;;;;;3.33;2.97;;;;;;;;;;10332217;28;20075;-69
2023/09/04 10:16:34;;;;;;;5.60;3.05;;;;;;;;;;10329856;28;20060;-68
2023/09/04 10:21:35;;;;;;;3.92;2.25;;;;;;;;;;10329805;28;20071;-69
2023/09/04 10:26:37;;;;;;;2.40;2.20;;;;;;;;;;10331036;28;20060;-69
2023/09/04 10:31:36;;;;;;;3.78;2.00;;;;;;;;;;10326843;28;20068;-70
2023/09/04 10:36:37;;;;;;;3.03;2.72;;;;;;;;;;10328706;28;20072;-70
2023/09/04 10:41:36;;;;;;;3.35;2.67;;;;;;;;;;10328193;28;20078;-70
2023/09/04 10:46:34;;;;;;;4.35;2.55;;;;;;;;;;10327336;28;20086;-69
2023/09/04 10:51:33;;;;;;;6.57;2.33;;;;;;;;;;10328319;28;20080;-71
2023/09/04 10:56:47;;;;;;;2.60;2.40;;;;;;;;;;10329849;28;20068;-70
2023/09/04 11:01:48;;;;;;;3.38;2.80;;;;;;;;;;10326429;28;20076;-72
2023/09/04 11:07:07;;;;;;;3.83;3.45;;;;;;;;;;10322199;28;20071;-71
2023/09/04 11:12:10;;;;;;;2.40;2.10;;;;;;;;;;10320849;28;20060;-71
2023/09/04 11:17:10;;;;;;;2.83;2.20;;;;;;;;;;10318923;28;20075;-71
2023/09/04 11:22:15;;;;;;;3.08;2.78;;;;;;;;;;10321187;28;20071;-71
2023/09/04 11:27:13;;;;;;;5.40;2.95;;;;;;;;;;10324835;28;20065;-71
2023/09/04 11:32:17;;;;;;;2.95;2.65;;;;;;;;;;10327367;28;20098;-71
2023/09/04 11:37:16;;;;;;;3.40;3.10;;;;;;;;;;10321077;28;20087;-68
2023/09/04 11:42:18;;;;;;;5.10;3.05;;;;;;;;;;10320571;28;20068;-69
2023/09/04 11:47:18;;;;;;;5.15;3.25;;;;;;;;;;10319540;28;20126;-69
2023/09/04 11:52:17;;;;;;;2.45;2.25;;;;;;;;;;10325700;28;20482;-69
2023/09/04 11:57:15;;;;;;;5.40;3.33;;;;;;;;;;10325869;28;20064;-69
2023/09/04 12:02:14;;;;;;;4.55;3.38;;;;;;;;;;10327145;28;20575;-69
2023/09/04 12:07:16;;;;;;;3.65;3.35;;;;;;;;;;10331701;28;20080;-70
2023/09/04 12:12:15;;;;;;;5.38;3.40;;;;;;;;;;10333861;28;20080;-70
2023/09/04 12:17:13;;;;;;;3.65;3.35;;;;;;;;;;10329726;28;20076;-69
2023/09/04 12:22:14;;;;;;;3.38;3.10;;;;;;;;;;10331521;28;20072;-69
2023/09/04 12:27:12;;;;;;;4.18;3.78;;;;;;;;;;10329115;28;20064;-72
2023/09/04 12:32:13;;;;;;;4.85;3.72;;;;;;;;;;10322531;28;20087;-69
2023/09/04 12:37:15;;;;;;;3.67;3.37;;;;;;;;;;10327557;28;20082;-69
2023/09/04 12:42:13;;;;;;;4.38;3.65;;;;;;;;;;10328760;28;20325;-69
2023/09/04 12:47:11;;;;;;;9.77;4.00;;;;;;;;;;10329949;28;20098;-70
2023/09/04 12:52:09;;;;;;;4.38;4.07;;;;;;;;;;10336935;28;20068;-71
2023/09/04 12:57:11;;;;;;;5.90;3.63;;;;;;;;;;10333450;28;20503;-72
2023/09/04 13:02:12;;;;;;;11.40;3.70;;;;;;;;;;10328991;28;20068;-72
2023/09/04 13:07:11;;;;;;;5.85;3.28;;;;;;;;;;10325864;28;20076;-72
2023/09/04 13:12:10;;;;;;;3.60;3.30;;;;;;;;;;10332801;28;20090;-72
2023/09/04 13:17:08;;;;;;;4.50;3.95;;;;;;;;;;10330760;28;20084;-72
2023/09/04 13:22:07;;;;;;;5.20;3.63;;;;;;;;;;10331863;28;20067;-69
2023/09/04 13:27:05;;;;;;;5.43;4.20;;;;;;;;;;10332521;28;20078;-68
2023/09/04 13:32:05;;;;;;;5.70;3.90;;;;;;;;;;10331067;28;20076;-69
2023/09/04 13:37:03;;;;;;;5.20;3.72;;;;;;;;;;10330629;28;20078;-69
2023/09/04 13:42:02;;;;;;;5.82;3.45;;;;;;;;;;10325924;28;20073;-69
2023/09/04 13:47:01;;;;;;;3.25;2.95;;;;;;;;;;10327381;28;20079;-69
2023/09/04 13:52:03;;;;;;;6.00;4.22;;;;;;;;;;10325974;28;20076;-68
2023/09/04 13:57:04;;;;;;;4.78;3.33;;;;;;;;;;10330662;28;20075;-69
2023/09/04 14:02:05;;;;;;;4.22;2.95;;;;;;;;;;10319001;28;20076;-68
2023/09/04 14:07:04;;;;;;;5.13;2.95;;;;;;;;;;10323732;28;20067;-68
2023/09/04 14:12:03;;;;;;;3.42;3.13;;;;;;;;;;10325145;28;20492;-69
2023/09/04 14:17:01;;;;;;;4.35;4.05;;;;;;;;;;10322625;28;20075;-71
2023/09/04 14:22:00;;;;;;;7.63;5.65;;;;;;;;;;10327555;28;20072;-70
2023/09/04 14:27:00;;;;;;;4.80;4.05;;;;;;;;;;10325229;28;20476;-71
2023/09/04 14:32:01;;;;;;;6.35;4.25;;;;;;;;;;10325774;28;20098;-70
2023/09/04 14:37:01;;;;;;;5.60;3.63;;;;;;;;;;10317728;28;20060;-68
2023/09/04 14:42:12;;;;;;;7.65;4.32;;;;;;;;;;10324636;28;20113;-71
2023/09/04 14:47:10;;;;;;;4.35;2.75;;;;;;;;;;10328050;28;20568;-70
2023/09/04 14:52:09;;;;;;;4.28;3.25;;;;;;;;;;10324642;28;20536;-71
2023/09/04 14:57:07;;;;;;;7.40;3.63;;;;;;;;;;10327742;28;20068;-69
2023/09/04 15:02:08;;;;;;;10.98;3.60;;;;;;;;;;10323875;28;20509;-69
2023/09/04 15:07:07;;;;;;;3.58;3.20;;;;;;;;;;10327155;28;20076;-70
2023/09/04 15:12:06;;;;;;;3.30;3.00;;;;;;;;;;10323007;28;20527;-69
2023/09/04 15:17:04;;;;;;;4.18;3.20;;;;;;;;;;10328062;28;20608;-69
2023/09/04 15:22:05;;;;;;;4.68;4.28;;;;;;;;;;10321045;28;20068;-69
2023/09/04 15:27:03;;;;;;;3.58;3.28;;;;;;;;;;10296485;28;20071;-69
2023/09/04 15:32:02;;;;;;;7.38;4.18;;;;;;;;;;10319862;28;20092;-70
2023/09/04 15:37:01;;;;;;;4.03;3.70;;;;;;;;;;10321886;28;20059;-64
2023/09/04 15:42:01;;;;;;;4.20;3.80;;;;;;;;;;10330125;28;20098;-64
2023/09/04 15:47:02;;;;;;;3.83;3.47;;;;;;;;;;10333074;28;20068;-64
2023/09/04 15:52:00;;;;;;;5.72;4.05;;;;;;;;;;10331438;28;20518;-65
2023/09/04 15:57:02;;;;;;;8.25;4.68;;;;;;;;;;10297668;28;20499;-64
2023/09/04 16:02:03;;;;;;;4.60;4.15;;;;;;;;;;10335123;28;20071;-64
2023/09/04 16:07:01;;;;;;;5.53;3.70;;;;;;;;;;10326745;28;20474;-63
2023/09/04 16:12:00;;;;;;;5.53;3.83;;;;;;;;;;10328569;28;20100;-65
2023/09/04 16:16:58;;;;;;;4.32;3.92;;;;;;;;;;10325419;28;20369;-65
2023/09/04 16:21:58;;;;;;;5.55;4.38;;;;;;;;;;10323665;28;20068;-65
2023/09/04 16:26:56;;;;;;;9.07;5.75;;;;;;;;;;10328201;28;20084;-65
2023/09/04 16:31:55;;;;;;;8.50;5.95;;;;;;;;;;10328117;28;20486;-66
2023/09/04 16:36:54;;;;;;;11.77;6.95;;;;;;;;;;10325941;28;20669;-64
2023/09/04 16:41:53;;;;;;;7.55;5.95;;;;;;;;;;10330475;28;20064;-65
2023/09/04 16:46:51;;;;;;;10.88;5.50;;;;;;;;;;10329262;28;20468;-65
2023/09/04 16:51:50;;;;;;;9.88;8.07;;;;;;;;;;10328734;28;20076;-65
2023/09/04 16:56:56;;;;;;;9.80;5.97;;;;;;;;;;10323317;28;20075;-65
2023/09/04 17:01:54;;;;;;;10.80;6.80;;;;;;;;;;10333949;28;20110;-66
2023/09/04 17:06:53;;;;;;;6.15;5.55;;;;;;;;;;10325198;28;20066;-64
2023/09/04 17:11:53;;;;;;;7.53;6.63;;;;;;;;;;10329363;28;20083;-64
2023/09/04 17:16:53;;;;;;;11.57;5.25;;;;;;;;;;10322762;28;20072;-64
2023/09/04 17:21:51;;;;;;;6.18;5.63;;;;;;;;;;10326975;28;20075;-64
2023/09/04 17:26:50;;;;;;;6.68;5.90;;;;;;;;;;10310444;28;20465;-66
2023/09/04 17:31:52;;;;;;;5.97;5.50;;;;;;;;;;10329131;28;20070;-64
2023/09/04 17:36:52;;;;;;;6.68;6.03;;;;;;;;;;10328651;28;20072;-65
2023/09/04 17:41:50;;;;;;;6.78;6.18;;;;;;;;;;10325529;28;20076;-64
2023/09/04 17:46:51;;;;;;;8.77;5.70;;;;;;;;;;10323915;28;20508;-64
2023/09/04 17:51:50;;;;;;;6.60;6.00;;;;;;;;;;10325026;28;20087;-68
2023/09/04 17:56:49;;;;;;;9.75;5.88;;;;;;;;;;10327923;28;20076;-65
2023/09/04 18:01:48;;;;;;;11.50;6.45;;;;;;;;;;10320154;28;20071;-64
2023/09/04 18:06:46;;;;;;;6.35;5.35;;;;;;;;;;10324475;28;20693;-66
2023/09/04 18:11:45;;;;;;;8.35;5.13;;;;;;;;;;10326600;28;20068;-65
2023/09/04 18:16:44;;;;;;;5.78;4.85;;;;;;;;;;10316324;28;20102;-65
2023/09/04 18:21:43;;;;;;;5.05;4.60;;;;;;;;;;10326261;28;20060;-63
2023/09/04 18:26:44;;;;;;;6.93;4.82;;;;;;;;;;10330002;28;20068;-63
2023/09/04 18:31:45;;;;;;;5.45;4.47;;;;;;;;;;10329050;28;20075;-63
2023/09/04 18:36:45;;;;;;;8.38;4.72;;;;;;;;;;10325009;28;20078;-65
2023/09/04 18:41:46;;;;;;;4.53;4.10;;;;;;;;;;10325177;28;20060;-63
2023/09/04 18:46:44;;;;;;;8.07;3.88;;;;;;;;;;10320338;28;20075;-65
2023/09/04 18:51:47;;;;;;;4.40;4.07;;;;;;;;;;10328018;28;20083;-64
2023/09/04 18:56:45;;;;;;;9.88;4.53;;;;;;;;;;10331270;28;20075;-64
2023/09/04 19:01:43;;;;;;;5.93;4.38;;;;;;;;;;10327318;28;20508;-64
2023/09/04 19:06:41;;;;;;;6.32;4.28;;;;;;;;;;10327632;28;20090;-62
2023/09/04 19:11:41;;;;;;;4.60;3.65;;;;;;;;;;10325206;28;20068;-62
2023/09/04 19:16:39;;;;;;;4.00;3.60;;;;;;;;;;10311583;28;20079;-62
2023/09/04 19:21:38;;;;;;;4.00;3.60;;;;;;;;;;10329670;28;20067;-64
2023/09/04 19:26:36;;;;;;;3.58;3.28;;;;;;;;;;10331747;28;20063;-63
2023/09/04 19:31:36;;;;;;;5.15;3.60;;;;;;;;;;10317677;28;20498;-64
2023/09/04 19:36:34;;;;;;;4.53;3.65;;;;;;;;;;10332533;28;20488;-64
2023/09/04 19:41:32;;;;;;;4.00;3.60;;;;;;;;;;10331701;28;20478;-63
2023/09/04 19:46:30;;;;;;;5.15;3.22;;;;;;;;;;10332994;28;20090;-64
2023/09/04 19:51:30;;;;;;;4.25;3.75;;;;;;;;;;10332825;28;20076;-65
2023/09/04 19:56:31;;;;;;;4.13;3.72;;;;;;;;;;10331810;28;20076;-64
2023/09/04 20:01:30;;;;;;;4.53;3.70;;;;;;;;;;10331089;28;20533;-64
2023/09/04 20:06:29;;;;;;;4.43;4.03;;;;;;;;;;10323775;28;20086;-62
2023/09/04 20:11:31;;;;;;;4.72;4.07;;;;;;;;;;10326373;28;20083;-65
2023/09/04 20:16:30;;;;;;;4.28;3.85;;;;;;;;;;10330322;28;20072;-64
2023/09/04 20:21:30;;;;;;;5.60;4.32;;;;;;;;;;10333499;28;20067;-62
2023/09/04 20:26:28;;;;;;;4.28;3.95;;;;;;;;;;10333900;28;20075;-64
2023/09/04 20:31:45;;;;;;;4.40;4.00;;;;;;;;;;10334794;28;20040;-64
2023/09/04 20:36:46;;;;;;;4.75;4.35;;;;;;;;;;10333189;28;20083;-64
2023/09/04 20:41:44;;;;;;;5.75;4.07;;;;;;;;;;10332212;28;20067;-64
2023/09/04 20:46:43;;;;;;;4.13;3.83;;;;;;;;;;10333568;28;20083;-63
2023/09/04 20:51:41;;;;;;;5.53;4.38;;;;;;;;;;10329899;28;20081;-64
2023/09/04 20:56:41;;;;;;;5.25;4.22;;;;;;;;;;10327280;28;20075;-64
2023/09/04 21:01:42;;;;;;;4.43;4.03;;;;;;;;;;10328143;28;20064;-64
2023/09/04 21:06:40;;;;;;;5.55;4.10;;;;;;;;;;10332865;28;20087;-64
2023/09/04 23:23:18;;;;;;;4.88;4.47;;;;;;;;;;10324103;28;20076;-65
2023/09/04 23:28:17;;;;;;;5.78;5.28;;;;;;;;;;10329419;28;20067;-64
2023/09/04 23:33:25;;;;;;;5.22;4.75;;;;;;;;;;10326764;28;20086;-63
2023/09/04 23:38:30;;;;;;;5.50;4.85;;;;;;;;;;10324493;28;20477;-64
2023/09/04 23:48:46;;;;;;;5.13;4.55;;;;;;;;;;10327958;28;20067;-64
2023/09/04 23:53:48;;;;;;;5.65;4.47;;;;;;;;;;10327200;28;20082;-64
2023/09/04 23:58:47;;;;;;;4.78;4.28;;;;;;;;;;10330844;28;20064;-65
